sensor_id;sensor_type;location;lat;lon;timestamp;temperature;humidity
11089;DHT22;5598;48.648;8.908;2022-12-07T00:01:21;2.20;99.90
11089;DHT22;5598;48.648;8.908;2022-12-07T00:03:51;2.10;99.90
11089;DHT22;5598;48.648;8.908;2022-12-07T00:06:18;2.20;99.90
11089;DHT22;5598;48.648;8.908;2022-12-07T00:08:46;2.20;99.90
11089;DHT22;5598;48.648;8.908;2022-12-07T00:11:16;2.20;99.90
11089;DHT22;5598;48.648;8.908;2022-12-07T00:13:43;2.20;99.90
11089;DHT22;5598;48.648;8.908;2022-12-07T00:16:12;2.20;99.90
11089;DHT22;5598;48.648;8.908;2022-12-07T00:18:39;2.20;99.90
11089;DHT22;5598;48.648;8.908;2022-12-07T00:21:08;2.20;99.90
11089;DHT22;5598;48.648;8.908;2022-12-07T00:23:35;2.20;99.90
11089;DHT22;5598;48.648;8.908;2022-12-07T00:26:06;2.30;99.90
11089;DHT22;5598;48.648;8.908;2022-12-07T00:28:34;2.30;99.90
11089;DHT22;5598;48.648;8.908;2022-12-07T00:31:03;2.30;99.90
11089;DHT22;5598;48.648;8.908;2022-12-07T00:33:31;2.20;99.90
11089;DHT22;5598;48.648;8.908;2022-12-07T00:35:58;2.20;99.90
11089;DHT22;5598;48.648;8.908;2022-12-07T00:38:27;2.20;99.90
11089;DHT22;5598;48.648;8.908;2022-12-07T00:40:56;2.30;99.90
11089;DHT22;5598;48.648;8.908;2022-12-07T00:43:23;2.30;99.90
11089;DHT22;5598;48.648;8.908;2022-12-07T00:45:51;2.30;99.90
11089;DHT22;5598;48.648;8.908;2022-12-07T00:48:18;2.40;99.90
11089;DHT22;5598;48.648;8.908;2022-12-07T00:50:44;2.60;99.90
11089;DHT22;5598;48.648;8.908;2022-12-07T00:53:11;2.50;99.90
11089;DHT22;5598;48.648;8.908;2022-12-07T00:55:38;2.50;99.90
11089;DHT22;5598;48.648;8.908;2022-12-07T00:58:05;2.50;99.90
11089;DHT22;5598;48.648;8.908;2022-12-07T01:00:33;2.50;99.90
11089;DHT22;5598;48.648;8.908;2022-12-07T01:03:03;2.50;99.90
11089;DHT22;5598;48.648;8.908;2022-12-07T01:05:30;2.40;99.90
11089;DHT22;5598;48.648;8.908;2022-12-07T01:07:56;2.60;99.90
11089;DHT22;5598;48.648;8.908;2022-12-07T01:10:23;2.60;99.90
11089;DHT22;5598;48.648;8.908;2022-12-07T01:12:50;2.60;99.90
11089;DHT22;5598;48.648;8.908;2022-12-07T01:15:17;2.70;99.90
11089;DHT22;5598;48.648;8.908;2022-12-07T01:17:44;2.60;99.90
11089;DHT22;5598;48.648;8.908;2022-12-07T01:20:13;2.60;99.90
11089;DHT22;5598;48.648;8.908;2022-12-07T01:22:42;2.40;99.90
11089;DHT22;5598;48.648;8.908;2022-12-07T01:25:10;2.40;99.90
11089;DHT22;5598;48.648;8.908;2022-12-07T01:27:37;2.40;99.90
11089;DHT22;5598;48.648;8.908;2022-12-07T01:30:07;2.40;99.90
11089;DHT22;5598;48.648;8.908;2022-12-07T01:32:34;2.40;99.90
11089;DHT22;5598;48.648;8.908;2022-12-07T01:35:01;2.50;99.90
11089;DHT22;5598;48.648;8.908;2022-12-07T01:37:34;2.40;99.90
11089;DHT22;5598;48.648;8.908;2022-12-07T01:40:00;2.50;99.90
11089;DHT22;5598;48.648;8.908;2022-12-07T01:42:28;2.50;99.90
11089;DHT22;5598;48.648;8.908;2022-12-07T01:47:56;2.40;99.90
11089;DHT22;5598;48.648;8.908;2022-12-07T01:50:25;2.30;99.90
11089;DHT22;5598;48.648;8.908;2022-12-07T01:52:55;2.10;99.90
11089;DHT22;5598;48.648;8.908;2022-12-07T01:55:23;2.10;99.90
11089;DHT22;5598;48.648;8.908;2022-12-07T01:57:52;2.00;99.90
11089;DHT22;5598;48.648;8.908;2022-12-07T02:00:20;1.90;99.90
11089;DHT22;5598;48.648;8.908;2022-12-07T02:02:51;2.00;99.90
11089;DHT22;5598;48.648;8.908;2022-12-07T02:05:19;1.80;99.90
11089;DHT22;5598;48.648;8.908;2022-12-07T02:07:47;1.80;99.90
11089;DHT22;5598;48.648;8.908;2022-12-07T02:10:18;1.80;99.90
11089;DHT22;5598;48.648;8.908;2022-12-07T02:12:48;1.70;99.90
11089;DHT22;5598;48.648;8.908;2022-12-07T02:15:16;1.80;99.90
11089;DHT22;5598;48.648;8.908;2022-12-07T02:17:51;1.90;99.90
11089;DHT22;5598;48.648;8.908;2022-12-07T02:20:26;1.90;99.90
11089;DHT22;5598;48.648;8.908;2022-12-07T02:23:21;1.70;99.90
11089;DHT22;5598;48.648;8.908;2022-12-07T02:26:17;1.80;99.90
11089;DHT22;5598;48.648;8.908;2022-12-07T02:29:03;1.70;99.90
11089;DHT22;5598;48.648;8.908;2022-12-07T02:31:32;1.80;99.90
11089;DHT22;5598;48.648;8.908;2022-12-07T02:34:05;2.00;99.90
11089;DHT22;5598;48.648;8.908;2022-12-07T02:36:41;2.10;99.90
11089;DHT22;5598;48.648;8.908;2022-12-07T02:39:14;2.30;99.90
11089;DHT22;5598;48.648;8.908;2022-12-07T02:41:44;2.30;99.90
11089;DHT22;5598;48.648;8.908;2022-12-07T02:44:18;2.20;99.90
11089;DHT22;5598;48.648;8.908;2022-12-07T02:46:51;2.20;99.90
11089;DHT22;5598;48.648;8.908;2022-12-07T02:49:21;2.00;99.90
11089;DHT22;5598;48.648;8.908;2022-12-07T02:51:48;1.90;99.90
11089;DHT22;5598;48.648;8.908;2022-12-07T02:54:17;1.90;99.90
11089;DHT22;5598;48.648;8.908;2022-12-07T02:56:48;1.90;99.90
11089;DHT22;5598;48.648;8.908;2022-12-07T02:59:26;1.90;99.90
11089;DHT22;5598;48.648;8.908;2022-12-07T03:02:03;1.90;99.90
11089;DHT22;5598;48.648;8.908;2022-12-07T03:04:42;1.70;99.90
11089;DHT22;5598;48.648;8.908;2022-12-07T03:07:21;1.60;99.90
11089;DHT22;5598;48.648;8.908;2022-12-07T03:09:58;1.60;99.90
11089;DHT22;5598;48.648;8.908;2022-12-07T03:12:31;1.60;99.90
11089;DHT22;5598;48.648;8.908;2022-12-07T03:15:05;1.60;99.90
11089;DHT22;5598;48.648;8.908;2022-12-07T03:17:35;1.70;99.90
11089;DHT22;5598;48.648;8.908;2022-12-07T03:20:06;1.60;99.90
11089;DHT22;5598;48.648;8.908;2022-12-07T03:22:35;1.50;99.90
11089;DHT22;5598;48.648;8.908;2022-12-07T03:25:08;1.60;99.90
11089;DHT22;5598;48.648;8.908;2022-12-07T03:27:39;1.70;99.90
11089;DHT22;5598;48.648;8.908;2022-12-07T03:30:10;1.70;99.90
11089;DHT22;5598;48.648;8.908;2022-12-07T03:32:41;1.70;99.90
11089;DHT22;5598;48.648;8.908;2022-12-07T03:35:14;1.70;99.90
11089;DHT22;5598;48.648;8.908;2022-12-07T03:37:47;1.80;99.90
11089;DHT22;5598;48.648;8.908;2022-12-07T03:40:19;1.70;99.90
11089;DHT22;5598;48.648;8.908;2022-12-07T03:42:49;1.70;99.90
11089;DHT22;5598;48.648;8.908;2022-12-07T03:45:20;1.70;99.90
11089;DHT22;5598;48.648;8.908;2022-12-07T03:47:52;1.60;99.90
11089;DHT22;5598;48.648;8.908;2022-12-07T03:50:27;1.60;99.90
11089;DHT22;5598;48.648;8.908;2022-12-07T03:52:58;1.60;99.90
11089;DHT22;5598;48.648;8.908;2022-12-07T03:55:28;1.60;99.90
11089;DHT22;5598;48.648;8.908;2022-12-07T03:58:00;1.60;99.90
11089;DHT22;5598;48.648;8.908;2022-12-07T04:00:30;1.60;99.90
11089;DHT22;5598;48.648;8.908;2022-12-07T04:02:57;1.70;99.90
11089;DHT22;5598;48.648;8.908;2022-12-07T04:05:24;1.70;99.90
11089;DHT22;5598;48.648;8.908;2022-12-07T04:07:51;1.70;99.90
11089;DHT22;5598;48.648;8.908;2022-12-07T04:10:18;1.70;99.90
11089;DHT22;5598;48.648;8.908;2022-12-07T04:12:45;1.70;99.90
11089;DHT22;5598;48.648;8.908;2022-12-07T04:15:12;1.90;99.90
11089;DHT22;5598;48.648;8.908;2022-12-07T04:17:40;1.90;99.90
11089;DHT22;5598;48.648;8.908;2022-12-07T04:20:08;1.90;99.90
11089;DHT22;5598;48.648;8.908;2022-12-07T04:22:35;1.90;99.90
11089;DHT22;5598;48.648;8.908;2022-12-07T04:25:03;1.70;99.90
11089;DHT22;5598;48.648;8.908;2022-12-07T04:27:29;1.60;99.90
11089;DHT22;5598;48.648;8.908;2022-12-07T04:29:56;1.50;99.90
11089;DHT22;5598;48.648;8.908;2022-12-07T04:32:23;1.50;99.90
11089;DHT22;5598;48.648;8.908;2022-12-07T04:34:51;1.50;99.90
11089;DHT22;5598;48.648;8.908;2022-12-07T04:37:18;1.50;99.90
11089;DHT22;5598;48.648;8.908;2022-12-07T04:39:45;1.50;99.90
11089;DHT22;5598;48.648;8.908;2022-12-07T04:42:12;1.50;99.90
11089;DHT22;5598;48.648;8.908;2022-12-07T04:44:39;1.40;99.90
11089;DHT22;5598;48.648;8.908;2022-12-07T04:47:06;1.40;99.90
11089;DHT22;5598;48.648;8.908;2022-12-07T04:49:33;1.30;99.90
11089;DHT22;5598;48.648;8.908;2022-12-07T04:52:01;1.30;99.90
11089;DHT22;5598;48.648;8.908;2022-12-07T04:54:28;1.30;99.90
11089;DHT22;5598;48.648;8.908;2022-12-07T04:56:54;1.30;99.90
11089;DHT22;5598;48.648;8.908;2022-12-07T04:59:21;1.30;99.90
11089;DHT22;5598;48.648;8.908;2022-12-07T05:01:48;1.20;99.90
11089;DHT22;5598;48.648;8.908;2022-12-07T05:04:15;1.20;99.90
11089;DHT22;5598;48.648;8.908;2022-12-07T05:06:43;1.30;99.90
11089;DHT22;5598;48.648;8.908;2022-12-07T05:09:11;1.30;99.90
11089;DHT22;5598;48.648;8.908;2022-12-07T05:11:38;1.20;99.90
11089;DHT22;5598;48.648;8.908;2022-12-07T05:14:08;1.10;99.90
11089;DHT22;5598;48.648;8.908;2022-12-07T05:16:35;1.00;99.90
11089;DHT22;5598;48.648;8.908;2022-12-07T05:19:02;1.20;99.90
11089;DHT22;5598;48.648;8.908;2022-12-07T05:21:29;1.20;99.90
11089;DHT22;5598;48.648;8.908;2022-12-07T05:23:56;1.20;99.90
11089;DHT22;5598;48.648;8.908;2022-12-07T05:26:24;1.10;99.90
11089;DHT22;5598;48.648;8.908;2022-12-07T05:28:51;1.00;99.90
11089;DHT22;5598;48.648;8.908;2022-12-07T05:31:19;1.00;99.90
11089;DHT22;5598;48.648;8.908;2022-12-07T05:33:45;0.90;99.90
11089;DHT22;5598;48.648;8.908;2022-12-07T05:36:12;0.90;99.90
11089;DHT22;5598;48.648;8.908;2022-12-07T05:38:39;0.90;99.90
11089;DHT22;5598;48.648;8.908;2022-12-07T05:41:07;0.90;99.90
11089;DHT22;5598;48.648;8.908;2022-12-07T05:43:55;0.90;99.90
11089;DHT22;5598;48.648;8.908;2022-12-07T05:46:22;0.70;99.90
11089;DHT22;5598;48.648;8.908;2022-12-07T05:48:49;0.60;99.90
11089;DHT22;5598;48.648;8.908;2022-12-07T05:51:16;0.40;99.90
11089;DHT22;5598;48.648;8.908;2022-12-07T05:53:42;0.30;99.90
11089;DHT22;5598;48.648;8.908;2022-12-07T05:56:09;0.20;99.90
11089;DHT22;5598;48.648;8.908;2022-12-07T05:58:36;0.20;99.90
11089;DHT22;5598;48.648;8.908;2022-12-07T06:01:21;0.20;99.90
11089;DHT22;5598;48.648;8.908;2022-12-07T06:03:48;0.20;99.90
11089;DHT22;5598;48.648;8.908;2022-12-07T06:06:15;0.10;99.90
11089;DHT22;5598;48.648;8.908;2022-12-07T06:08:42;0.00;99.90
11089;DHT22;5598;48.648;8.908;2022-12-07T06:11:08;-0.10;99.90
11089;DHT22;5598;48.648;8.908;2022-12-07T06:13:53;-0.20;99.90
11089;DHT22;5598;48.648;8.908;2022-12-07T06:16:21;-0.20;99.90
11089;DHT22;5598;48.648;8.908;2022-12-07T06:18:48;0.00;99.90
11089;DHT22;5598;48.648;8.908;2022-12-07T06:21:15;0.00;99.90
11089;DHT22;5598;48.648;8.908;2022-12-07T06:23:41;0.10;99.90
11089;DHT22;5598;48.648;8.908;2022-12-07T06:26:08;0.10;99.90
11089;DHT22;5598;48.648;8.908;2022-12-07T06:28:35;0.10;99.90
11089;DHT22;5598;48.648;8.908;2022-12-07T06:31:02;0.20;99.90
11089;DHT22;5598;48.648;8.908;2022-12-07T06:33:30;0.30;99.90
11089;DHT22;5598;48.648;8.908;2022-12-07T06:35:57;0.30;99.90
11089;DHT22;5598;48.648;8.908;2022-12-07T06:38:24;0.40;99.90
11089;DHT22;5598;48.648;8.908;2022-12-07T06:40:51;0.50;99.90
11089;DHT22;5598;48.648;8.908;2022-12-07T06:43:17;0.40;99.90
11089;DHT22;5598;48.648;8.908;2022-12-07T06:45:44;0.30;99.90
11089;DHT22;5598;48.648;8.908;2022-12-07T06:48:11;0.30;99.90
11089;DHT22;5598;48.648;8.908;2022-12-07T06:50:39;0.30;99.90
11089;DHT22;5598;48.648;8.908;2022-12-07T06:53:06;0.30;99.90
11089;DHT22;5598;48.648;8.908;2022-12-07T06:55:33;0.30;99.90
11089;DHT22;5598;48.648;8.908;2022-12-07T06:57:59;0.30;99.90
11089;DHT22;5598;48.648;8.908;2022-12-07T07:00:27;0.20;99.90
11089;DHT22;5598;48.648;8.908;2022-12-07T07:02:53;0.20;99.90
11089;DHT22;5598;48.648;8.908;2022-12-07T07:05:20;0.30;99.90
11089;DHT22;5598;48.648;8.908;2022-12-07T07:07:49;0.30;99.90
11089;DHT22;5598;48.648;8.908;2022-12-07T07:10:16;0.30;99.90
11089;DHT22;5598;48.648;8.908;2022-12-07T07:12:43;0.20;99.90
11089;DHT22;5598;48.648;8.908;2022-12-07T07:15:10;0.40;99.90
11089;DHT22;5598;48.648;8.908;2022-12-07T07:17:37;0.30;99.90
11089;DHT22;5598;48.648;8.908;2022-12-07T07:20:05;0.40;99.90
11089;DHT22;5598;48.648;8.908;2022-12-07T07:22:32;0.50;99.90
11089;DHT22;5598;48.648;8.908;2022-12-07T07:25:00;0.50;99.90
11089;DHT22;5598;48.648;8.908;2022-12-07T07:27:27;0.50;99.90
11089;DHT22;5598;48.648;8.908;2022-12-07T07:29:53;0.40;99.90
11089;DHT22;5598;48.648;8.908;2022-12-07T07:32:20;0.50;99.90
11089;DHT22;5598;48.648;8.908;2022-12-07T07:34:47;0.50;99.90
11089;DHT22;5598;48.648;8.908;2022-12-07T07:37:14;0.50;99.90
11089;DHT22;5598;48.648;8.908;2022-12-07T07:39:41;0.50;99.90
11089;DHT22;5598;48.648;8.908;2022-12-07T07:42:09;0.50;99.90
11089;DHT22;5598;48.648;8.908;2022-12-07T07:44:36;0.60;99.90
11089;DHT22;5598;48.648;8.908;2022-12-07T07:47:03;0.50;99.90
11089;DHT22;5598;48.648;8.908;2022-12-07T07:49:29;0.50;99.90
11089;DHT22;5598;48.648;8.908;2022-12-07T07:51:56;0.60;99.90
11089;DHT22;5598;48.648;8.908;2022-12-07T07:54:23;0.70;99.90
11089;DHT22;5598;48.648;8.908;2022-12-07T07:56:50;0.80;99.90
11089;DHT22;5598;48.648;8.908;2022-12-07T07:59:18;0.90;99.90
11089;DHT22;5598;48.648;8.908;2022-12-07T08:01:45;0.90;99.90
11089;DHT22;5598;48.648;8.908;2022-12-07T08:04:12;1.00;99.90
11089;DHT22;5598;48.648;8.908;2022-12-07T08:06:38;1.00;99.90
11089;DHT22;5598;48.648;8.908;2022-12-07T08:09:07;1.00;99.90
11089;DHT22;5598;48.648;8.908;2022-12-07T08:11:34;0.90;99.90
11089;DHT22;5598;48.648;8.908;2022-12-07T08:14:01;1.00;99.90
11089;DHT22;5598;48.648;8.908;2022-12-07T08:16:29;1.00;99.90
11089;DHT22;5598;48.648;8.908;2022-12-07T08:18:56;1.00;99.90
11089;DHT22;5598;48.648;8.908;2022-12-07T08:21:23;1.10;99.90
11089;DHT22;5598;48.648;8.908;2022-12-07T08:23:50;1.10;99.90
11089;DHT22;5598;48.648;8.908;2022-12-07T08:26:16;1.20;99.90
11089;DHT22;5598;48.648;8.908;2022-12-07T08:28:43;1.30;99.90
11089;DHT22;5598;48.648;8.908;2022-12-07T08:31:13;1.30;99.90
11089;DHT22;5598;48.648;8.908;2022-12-07T08:33:42;1.30;99.90
11089;DHT22;5598;48.648;8.908;2022-12-07T08:36:11;1.30;99.90
11089;DHT22;5598;48.648;8.908;2022-12-07T08:38:39;1.40;99.90
11089;DHT22;5598;48.648;8.908;2022-12-07T08:41:07;1.60;99.90
11089;DHT22;5598;48.648;8.908;2022-12-07T08:43:34;1.60;99.90
11089;DHT22;5598;48.648;8.908;2022-12-07T08:46:07;1.60;99.90
11089;DHT22;5598;48.648;8.908;2022-12-07T08:48:38;1.70;99.90
11089;DHT22;5598;48.648;8.908;2022-12-07T08:51:07;1.80;99.90
11089;DHT22;5598;48.648;8.908;2022-12-07T08:53:35;1.70;99.90
11089;DHT22;5598;48.648;8.908;2022-12-07T08:56:02;1.80;99.90
11089;DHT22;5598;48.648;8.908;2022-12-07T08:58:30;1.80;99.90
11089;DHT22;5598;48.648;8.908;2022-12-07T09:00:56;1.70;99.90
11089;DHT22;5598;48.648;8.908;2022-12-07T09:03:23;1.70;99.90
11089;DHT22;5598;48.648;8.908;2022-12-07T09:05:50;1.60;99.90
11089;DHT22;5598;48.648;8.908;2022-12-07T09:08:18;1.50;99.90
11089;DHT22;5598;48.648;8.908;2022-12-07T09:10:45;1.70;99.90
11089;DHT22;5598;48.648;8.908;2022-12-07T09:13:13;1.80;99.90
11089;DHT22;5598;48.648;8.908;2022-12-07T09:15:40;1.90;99.90
11089;DHT22;5598;48.648;8.908;2022-12-07T09:18:07;2.00;99.90
11089;DHT22;5598;48.648;8.908;2022-12-07T09:20:34;2.20;99.90
11089;DHT22;5598;48.648;8.908;2022-12-07T09:23:00;2.50;99.90
11089;DHT22;5598;48.648;8.908;2022-12-07T09:25:28;2.70;99.90
11089;DHT22;5598;48.648;8.908;2022-12-07T09:27:56;2.70;99.90
11089;DHT22;5598;48.648;8.908;2022-12-07T09:30:23;2.90;99.90
11089;DHT22;5598;48.648;8.908;2022-12-07T09:32:51;3.20;99.90
11089;DHT22;5598;48.648;8.908;2022-12-07T09:35:18;3.10;99.90
11089;DHT22;5598;48.648;8.908;2022-12-07T09:37:45;2.80;99.90
11089;DHT22;5598;48.648;8.908;2022-12-07T09:40:13;2.90;99.90
11089;DHT22;5598;48.648;8.908;2022-12-07T09:42:44;2.60;99.90
11089;DHT22;5598;48.648;8.908;2022-12-07T09:45:15;2.60;99.90
11089;DHT22;5598;48.648;8.908;2022-12-07T09:47:42;2.90;99.90
11089;DHT22;5598;48.648;8.908;2022-12-07T09:50:14;3.10;99.90
11089;DHT22;5598;48.648;8.908;2022-12-07T09:52:42;3.40;99.90
11089;DHT22;5598;48.648;8.908;2022-12-07T09:55:12;3.50;99.90
11089;DHT22;5598;48.648;8.908;2022-12-07T09:57:39;3.50;99.90
11089;DHT22;5598;48.648;8.908;2022-12-07T10:00:12;3.60;99.90
11089;DHT22;5598;48.648;8.908;2022-12-07T10:02:41;3.60;99.90
11089;DHT22;5598;48.648;8.908;2022-12-07T10:05:13;3.60;99.90
11089;DHT22;5598;48.648;8.908;2022-12-07T10:07:40;3.50;99.90
11089;DHT22;5598;48.648;8.908;2022-12-07T10:10:15;3.60;99.90
11089;DHT22;5598;48.648;8.908;2022-12-07T10:12:57;3.60;99.90
11089;DHT22;5598;48.648;8.908;2022-12-07T10:15:42;3.60;99.90
11089;DHT22;5598;48.648;8.908;2022-12-07T10:18:21;3.30;99.90
11089;DHT22;5598;48.648;8.908;2022-12-07T10:21:01;3.30;99.90
11089;DHT22;5598;48.648;8.908;2022-12-07T10:23:28;3.10;99.90
11089;DHT22;5598;48.648;8.908;2022-12-07T10:25:55;3.30;99.90
11089;DHT22;5598;48.648;8.908;2022-12-07T10:28:22;3.10;99.90
11089;DHT22;5598;48.648;8.908;2022-12-07T10:30:53;3.40;99.90
11089;DHT22;5598;48.648;8.908;2022-12-07T10:33:34;3.50;99.90
11089;DHT22;5598;48.648;8.908;2022-12-07T10:36:16;3.50;99.90
11089;DHT22;5598;48.648;8.908;2022-12-07T10:38:46;3.40;99.90
11089;DHT22;5598;48.648;8.908;2022-12-07T10:41:13;3.50;99.90
11089;DHT22;5598;48.648;8.908;2022-12-07T10:43:47;3.30;99.90
11089;DHT22;5598;48.648;8.908;2022-12-07T10:46:36;3.40;99.90
11089;DHT22;5598;48.648;8.908;2022-12-07T10:49:17;3.60;99.90
11089;DHT22;5598;48.648;8.908;2022-12-07T10:51:57;3.60;99.90
11089;DHT22;5598;48.648;8.908;2022-12-07T10:54:37;3.60;99.90
11089;DHT22;5598;48.648;8.908;2022-12-07T10:57:18;3.70;99.90
11089;DHT22;5598;48.648;8.908;2022-12-07T11:00:00;3.40;99.90
11089;DHT22;5598;48.648;8.908;2022-12-07T11:05:31;3.50;99.90
11089;DHT22;5598;48.648;8.908;2022-12-07T11:08:11;3.10;99.90
11089;DHT22;5598;48.648;8.908;2022-12-07T11:10:43;3.00;99.90
11089;DHT22;5598;48.648;8.908;2022-12-07T11:13:28;3.20;99.90
11089;DHT22;5598;48.648;8.908;2022-12-07T11:16:13;3.30;99.90
11089;DHT22;5598;48.648;8.908;2022-12-07T11:18:50;3.20;99.90
11089;DHT22;5598;48.648;8.908;2022-12-07T11:21:24;3.00;99.90
11089;DHT22;5598;48.648;8.908;2022-12-07T11:23:59;3.30;99.90
11089;DHT22;5598;48.648;8.908;2022-12-07T11:26:40;3.40;99.90
11089;DHT22;5598;48.648;8.908;2022-12-07T11:29:23;3.60;99.90
11089;DHT22;5598;48.648;8.908;2022-12-07T11:31:59;3.80;99.90
11089;DHT22;5598;48.648;8.908;2022-12-07T11:34:36;3.90;99.90
11089;DHT22;5598;48.648;8.908;2022-12-07T11:37:08;3.90;99.90
11089;DHT22;5598;48.648;8.908;2022-12-07T11:39:41;3.90;99.90
11089;DHT22;5598;48.648;8.908;2022-12-07T11:42:14;4.10;99.90
11089;DHT22;5598;48.648;8.908;2022-12-07T11:44:49;4.10;99.90
11089;DHT22;5598;48.648;8.908;2022-12-07T11:47:25;3.60;99.90
11089;DHT22;5598;48.648;8.908;2022-12-07T11:50:01;3.40;99.90
11089;DHT22;5598;48.648;8.908;2022-12-07T11:52:36;3.60;99.90
11089;DHT22;5598;48.648;8.908;2022-12-07T11:55:17;3.80;99.90
11089;DHT22;5598;48.648;8.908;2022-12-07T11:57:51;3.90;99.90
11089;DHT22;5598;48.648;8.908;2022-12-07T12:00:19;4.00;99.90
11089;DHT22;5598;48.648;8.908;2022-12-07T12:02:51;3.90;99.90
11089;DHT22;5598;48.648;8.908;2022-12-07T12:05:22;3.60;99.90
11089;DHT22;5598;48.648;8.908;2022-12-07T12:07:54;3.70;99.90
11089;DHT22;5598;48.648;8.908;2022-12-07T12:10:32;4.00;99.90
11089;DHT22;5598;48.648;8.908;2022-12-07T12:16:11;3.80;99.90
11089;DHT22;5598;48.648;8.908;2022-12-07T12:18:46;3.90;99.90
11089;DHT22;5598;48.648;8.908;2022-12-07T12:21:22;3.80;99.90
11089;DHT22;5598;48.648;8.908;2022-12-07T12:23:56;3.60;99.90
11089;DHT22;5598;48.648;8.908;2022-12-07T12:26:27;3.80;99.90
11089;DHT22;5598;48.648;8.908;2022-12-07T12:28:56;3.80;99.90
11089;DHT22;5598;48.648;8.908;2022-12-07T12:31:36;3.80;99.90
11089;DHT22;5598;48.648;8.908;2022-12-07T12:34:31;3.80;99.90
11089;DHT22;5598;48.648;8.908;2022-12-07T12:37:00;3.90;99.90
11089;DHT22;5598;48.648;8.908;2022-12-07T12:39:27;3.90;99.90
11089;DHT22;5598;48.648;8.908;2022-12-07T12:42:00;4.00;99.90
11089;DHT22;5598;48.648;8.908;2022-12-07T12:45:05;3.90;99.90
11089;DHT22;5598;48.648;8.908;2022-12-07T12:47:59;3.90;99.90
11089;DHT22;5598;48.648;8.908;2022-12-07T12:50:29;3.80;99.90
11089;DHT22;5598;48.648;8.908;2022-12-07T12:53:28;3.90;99.90
11089;DHT22;5598;48.648;8.908;2022-12-07T12:56:32;3.80;99.90
11089;DHT22;5598;48.648;8.908;2022-12-07T12:59:25;3.80;99.90
11089;DHT22;5598;48.648;8.908;2022-12-07T13:01:55;3.90;99.90
11089;DHT22;5598;48.648;8.908;2022-12-07T13:04:51;3.80;99.90
11089;DHT22;5598;48.648;8.908;2022-12-07T13:07:51;3.80;99.90
11089;DHT22;5598;48.648;8.908;2022-12-07T13:10:33;3.90;99.90
11089;DHT22;5598;48.648;8.908;2022-12-07T13:13:02;3.80;99.90
11089;DHT22;5598;48.648;8.908;2022-12-07T13:15:35;3.80;99.90
11089;DHT22;5598;48.648;8.908;2022-12-07T13:18:04;3.90;99.90
11089;DHT22;5598;48.648;8.908;2022-12-07T13:20:50;4.00;99.90
11089;DHT22;5598;48.648;8.908;2022-12-07T13:23:26;3.90;99.90
11089;DHT22;5598;48.648;8.908;2022-12-07T13:26:01;4.00;99.90
11089;DHT22;5598;48.648;8.908;2022-12-07T13:28:35;3.80;99.90
11089;DHT22;5598;48.648;8.908;2022-12-07T13:31:19;3.80;99.90
11089;DHT22;5598;48.648;8.908;2022-12-07T13:33:48;3.70;99.90
11089;DHT22;5598;48.648;8.908;2022-12-07T13:36:20;3.80;99.90
11089;DHT22;5598;48.648;8.908;2022-12-07T13:38:57;4.00;99.90
11089;DHT22;5598;48.648;8.908;2022-12-07T13:41:27;4.00;99.90
11089;DHT22;5598;48.648;8.908;2022-12-07T13:44:00;4.10;99.90
11089;DHT22;5598;48.648;8.908;2022-12-07T13:46:35;3.80;99.90
11089;DHT22;5598;48.648;8.908;2022-12-07T13:49:17;3.70;99.90
11089;DHT22;5598;48.648;8.908;2022-12-07T13:51:44;3.80;99.90
11089;DHT22;5598;48.648;8.908;2022-12-07T13:54:13;3.80;99.90
11089;DHT22;5598;48.648;8.908;2022-12-07T13:56:42;3.80;99.90
11089;DHT22;5598;48.648;8.908;2022-12-07T13:59:17;3.70;99.90
11089;DHT22;5598;48.648;8.908;2022-12-07T14:01:46;3.80;99.90
11089;DHT22;5598;48.648;8.908;2022-12-07T14:04:31;3.80;99.90
11089;DHT22;5598;48.648;8.908;2022-12-07T14:06:58;4.00;99.90
11089;DHT22;5598;48.648;8.908;2022-12-07T14:09:28;4.00;99.90
11089;DHT22;5598;48.648;8.908;2022-12-07T14:11:57;3.90;99.90
11089;DHT22;5598;48.648;8.908;2022-12-07T14:14:26;3.80;99.90
11089;DHT22;5598;48.648;8.908;2022-12-07T14:16:59;3.70;99.90
11089;DHT22;5598;48.648;8.908;2022-12-07T14:19:42;3.80;99.90
11089;DHT22;5598;48.648;8.908;2022-12-07T14:22:23;3.90;99.90
11089;DHT22;5598;48.648;8.908;2022-12-07T14:24:50;4.00;99.90
11089;DHT22;5598;48.648;8.908;2022-12-07T14:27:20;3.60;99.90
11089;DHT22;5598;48.648;8.908;2022-12-07T14:29:48;3.40;99.90
11089;DHT22;5598;48.648;8.908;2022-12-07T14:32:21;3.30;99.90
11089;DHT22;5598;48.648;8.908;2022-12-07T14:35:01;3.30;99.90
11089;DHT22;5598;48.648;8.908;2022-12-07T14:37:29;3.20;99.90
11089;DHT22;5598;48.648;8.908;2022-12-07T14:39:57;3.20;99.90
11089;DHT22;5598;48.648;8.908;2022-12-07T14:42:28;3.30;99.90
11089;DHT22;5598;48.648;8.908;2022-12-07T14:44:55;3.20;99.90
11089;DHT22;5598;48.648;8.908;2022-12-07T14:47:22;3.20;99.90
11089;DHT22;5598;48.648;8.908;2022-12-07T14:49:49;3.20;99.90
11089;DHT22;5598;48.648;8.908;2022-12-07T14:52:18;3.20;99.90
11089;DHT22;5598;48.648;8.908;2022-12-07T14:54:46;3.20;99.90
11089;DHT22;5598;48.648;8.908;2022-12-07T14:57:12;3.10;99.90
11089;DHT22;5598;48.648;8.908;2022-12-07T14:59:41;3.20;99.90
11089;DHT22;5598;48.648;8.908;2022-12-07T15:02:10;3.20;99.90
11089;DHT22;5598;48.648;8.908;2022-12-07T15:04:37;3.20;99.90
11089;DHT22;5598;48.648;8.908;2022-12-07T15:07:06;3.30;99.90
11089;DHT22;5598;48.648;8.908;2022-12-07T15:09:33;3.30;99.90
11089;DHT22;5598;48.648;8.908;2022-12-07T15:12:00;3.20;99.90
11089;DHT22;5598;48.648;8.908;2022-12-07T15:14:26;3.10;99.90
11089;DHT22;5598;48.648;8.908;2022-12-07T15:16:54;3.10;99.90
11089;DHT22;5598;48.648;8.908;2022-12-07T15:19:23;3.10;99.90
11089;DHT22;5598;48.648;8.908;2022-12-07T15:21:52;3.10;99.90
11089;DHT22;5598;48.648;8.908;2022-12-07T15:24:19;3.10;99.90
11089;DHT22;5598;48.648;8.908;2022-12-07T15:26:47;3.20;99.90
11089;DHT22;5598;48.648;8.908;2022-12-07T15:29:13;3.00;99.90
11089;DHT22;5598;48.648;8.908;2022-12-07T15:31:41;3.00;99.90
11089;DHT22;5598;48.648;8.908;2022-12-07T15:34:10;3.00;99.90
11089;DHT22;5598;48.648;8.908;2022-12-07T15:36:36;2.90;99.90
11089;DHT22;5598;48.648;8.908;2022-12-07T15:39:03;2.70;99.90
11089;DHT22;5598;48.648;8.908;2022-12-07T15:41:30;2.60;99.90
11089;DHT22;5598;48.648;8.908;2022-12-07T15:43:57;2.60;99.90
11089;DHT22;5598;48.648;8.908;2022-12-07T15:46:41;2.60;99.90
11089;DHT22;5598;48.648;8.908;2022-12-07T15:49:12;2.50;99.90
11089;DHT22;5598;48.648;8.908;2022-12-07T15:51:40;2.50;99.90
11089;DHT22;5598;48.648;8.908;2022-12-07T15:54:07;2.60;99.90
11089;DHT22;5598;48.648;8.908;2022-12-07T15:56:34;2.50;99.90
11089;DHT22;5598;48.648;8.908;2022-12-07T15:59:00;2.50;99.90
11089;DHT22;5598;48.648;8.908;2022-12-07T16:01:27;2.60;99.90
11089;DHT22;5598;48.648;8.908;2022-12-07T16:03:54;2.50;99.90
11089;DHT22;5598;48.648;8.908;2022-12-07T16:06:24;2.60;99.90
11089;DHT22;5598;48.648;8.908;2022-12-07T16:08:52;2.60;99.90
11089;DHT22;5598;48.648;8.908;2022-12-07T16:11:19;2.70;99.90
11089;DHT22;5598;48.648;8.908;2022-12-07T16:13:46;2.70;99.90
11089;DHT22;5598;48.648;8.908;2022-12-07T16:16:14;2.80;99.90
11089;DHT22;5598;48.648;8.908;2022-12-07T16:18:42;2.80;99.90
11089;DHT22;5598;48.648;8.908;2022-12-07T16:21:10;2.60;99.90
11089;DHT22;5598;48.648;8.908;2022-12-07T16:23:38;2.60;99.90
11089;DHT22;5598;48.648;8.908;2022-12-07T16:26:06;2.50;99.90
11089;DHT22;5598;48.648;8.908;2022-12-07T16:28:33;2.50;99.90
11089;DHT22;5598;48.648;8.908;2022-12-07T16:31:02;2.50;99.90
11089;DHT22;5598;48.648;8.908;2022-12-07T16:33:29;2.40;99.90